Time;durP1;ratioP1;P1;durP2;ratioP2;P2;SDS_P1;SDS_P2;PMS_P1;PMS_P2;Temp;Humidity;BMP_temperature;BMP_pressure;BME280_temperature;BME280_humidity;BME280_pressure;Samples;Min_cycle;Max_cycle;Signal;HPM_P1;HPM_P2
2022/09/19 00:01:17;;;;;;;0.20;0.20;;;;;;;13.34;97.25;100247.38;5046164;28;20116;-70
2022/09/19 00:03:45;;;;;;;0.10;0.10;;;;;;;13.29;96.99;100253.19;5032230;28;20091;-70
2022/09/19 00:06:13;;;;;;;0.88;0.20;;;;;;;13.15;96.86;100253.13;5050477;28;20051;-70
2022/09/19 00:08:42;;;;;;;0.25;0.25;;;;;;;13.10;96.61;100250.03;5032336;28;21251;-70
2022/09/19 00:11:10;;;;;;;2.15;0.50;;;;;;;13.08;97.12;100257.75;5049128;28;20035;-70
2022/09/19 00:13:38;;;;;;;0.30;0.30;;;;;;;13.03;97.37;100253.47;5029840;28;20039;-70
2022/09/19 00:16:24;;;;;;;0.20;0.20;;;;;;;12.99;96.92;100260.75;5050263;28;20032;-70
2022/09/19 00:18:52;;;;;;;0.30;0.30;;;;;;;13.01;96.94;100276.59;4966853;28;20050;-70
2022/09/19 00:21:22;;;;;;;0.20;0.20;;;;;;;12.95;96.96;100278.13;4992848;28;20041;-70
2022/09/19 00:26:32;;;;;;;0.20;0.20;;;;;;;12.89;97.08;100275.00;4985747;28;20038;-70
2022/09/19 00:28:57;;;;;;;0.30;0.30;;;;;;;12.87;97.48;100271.13;4983104;28;20082;-70
2022/09/19 00:31:23;;;;;;;0.10;0.10;;;;;;;12.82;97.21;100282.28;4973817;28;20073;-70
2022/09/19 00:33:49;;;;;;;0.13;0.13;;;;;;;12.79;96.82;100281.13;4987186;28;20026;-70
2022/09/19 00:36:16;;;;;;;0.30;0.30;;;;;;;12.88;96.72;100283.47;4978131;28;20081;-70
2022/09/19 00:38:43;;;;;;;0.20;0.20;;;;;;;12.85;96.15;100281.56;4958211;28;20038;-70
2022/09/19 00:41:12;;;;;;;0.22;0.22;;;;;;;12.76;96.36;100276.47;4972955;28;20538;-70
2022/09/19 00:43:45;;;;;;;0.20;0.20;;;;;;;12.72;96.66;100281.09;4972311;28;20283;-67
2022/09/19 00:46:11;;;;;;;0.20;0.20;;;;;;;12.69;96.61;100284.56;4990150;28;20117;-70
2022/09/19 00:48:41;;;;;;;0.20;0.20;;;;;;;12.61;97.04;100289.13;4974057;28;20131;-70
2022/09/19 00:51:12;;;;;;;0.38;0.38;;;;;;;12.65;97.07;100284.53;4990365;28;20077;-69
2022/09/19 00:53:38;;;;;;;0.40;0.20;;;;;;;12.66;97.53;100290.69;4987295;28;20045;-70
2022/09/19 00:56:04;;;;;;;0.20;0.20;;;;;;;12.65;97.26;100298.03;5019016;28;20075;-70
2022/09/19 00:58:33;;;;;;;0.77;0.50;;;;;;;12.67;97.31;100300.38;5029549;28;20033;-70
2022/09/19 01:00:59;;;;;;;0.45;0.20;;;;;;;12.75;96.79;100301.19;5034901;28;20408;-70
2022/09/19 01:03:27;;;;;;;0.45;0.30;;;;;;;12.67;96.79;100303.84;5044321;28;20446;-70
2022/09/19 01:05:59;;;;;;;3.45;0.50;;;;;;;12.73;96.80;100298.06;5033426;28;20439;-70
2022/09/19 01:08:52;;;;;;;0.30;0.30;;;;;;;12.73;96.19;100303.47;5051805;28;20079;-70
2022/09/19 01:11:29;;;;;;;0.25;0.20;;;;;;;12.67;96.10;100306.56;5016409;28;20493;-70
2022/09/19 01:14:25;;;;;;;0.77;0.30;;;;;;;12.65;96.64;100314.25;5036995;28;20030;-70
2022/09/19 01:16:59;;;;;;;0.32;0.22;;;;;;;12.63;96.51;100316.56;5017505;28;20122;-69
2022/09/19 01:20:08;;;;;;;0.30;0.30;;;;;;;12.63;96.66;100319.25;5030290;28;20063;-69
2022/09/19 01:23:25;;;;;;;0.20;0.20;;;;;;;12.55;97.01;100331.16;5041020;28;20026;-69
2022/09/19 01:26:03;;;;;;;0.10;0.10;;;;;;;12.55;97.16;100324.97;4965413;28;20042;-67
2022/09/19 01:29:17;;;;;;;0.22;0.22;;;;;;;12.54;96.81;100335.00;4997515;28;20041;-67
2022/09/19 01:31:48;;;;;;;0.10;0.10;;;;;;;12.61;97.11;100331.59;4931389;28;20030;-68
2022/09/19 01:34:24;;;;;;;0.40;0.30;;;;;;;12.54;96.44;100343.09;5039672;28;20071;-68
2022/09/19 01:37:03;;;;;;;0.20;0.20;;;;;;;12.55;96.75;100339.25;5030205;28;20402;-68
2022/09/19 01:39:32;;;;;;;0.38;0.13;;;;;;;12.52;96.89;100337.31;5045031;28;20033;-68
2022/09/19 01:42:00;;;;;;;0.30;0.30;;;;;;;12.42;96.95;100348.03;5051089;28;20643;-68
2022/09/19 01:44:28;;;;;;;0.15;0.15;;;;;;;12.50;97.15;100353.09;5031930;28;20059;-71
2022/09/19 01:47:15;;;;;;;0.45;0.40;;;;;;;12.42;96.41;100358.84;5031445;28;20575;-70
2022/09/19 01:49:56;;;;;;;0.30;0.30;;;;;;;12.45;96.93;100361.56;5056828;28;20047;-70
2022/09/19 01:52:49;;;;;;;0.38;0.38;;;;;;;12.45;96.91;100352.69;5032711;28;20415;-70
2022/09/19 01:55:30;;;;;;;0.75;0.20;;;;;;;12.44;96.57;100357.31;5047537;28;20040;-67
2022/09/19 01:58:22;;;;;;;0.25;0.25;;;;;;;12.39;97.18;100360.34;5036607;28;20520;-67
2022/09/19 02:01:16;;;;;;;1.05;0.28;;;;;;;12.41;97.01;100360.75;5012868;28;20045;-67
2022/09/19 02:04:09;;;;;;;0.20;0.20;;;;;;;12.40;96.67;100371.94;5032386;28;20405;-68
2022/09/19 02:07:01;;;;;;;0.20;0.20;;;;;;;12.41;96.71;100371.56;5053821;28;20108;-70
2022/09/19 02:09:48;;;;;;;0.20;0.20;;;;;;;12.41;96.80;100382.38;5030723;28;20025;-70
2022/09/19 02:12:18;;;;;;;0.77;0.22;;;;;;;12.38;97.06;100383.13;5031773;28;20052;-70
2022/09/19 02:14:55;;;;;;;0.28;0.20;;;;;;;12.35;97.00;100380.41;5036955;28;20068;-70
2022/09/19 02:17:33;;;;;;;1.30;0.30;;;;;;;12.29;97.51;100382.63;5038917;28;20116;-70
2022/09/19 02:20:11;;;;;;;0.40;0.40;;;;;;;12.37;97.39;100386.16;5032924;28;20112;-70
2022/09/19 02:22:43;;;;;;;1.13;0.25;;;;;;;12.33;97.45;100390.78;5037500;28;20107;-70
2022/09/19 02:25:16;;;;;;;0.28;0.28;;;;;;;12.34;97.23;100378.84;5050053;28;20143;-70
2022/09/19 02:27:49;;;;;;;0.20;0.20;;;;;;;12.32;97.19;100381.91;5031465;28;20056;-70
2022/09/19 02:30:19;;;;;;;0.30;0.30;;;;;;;12.30;96.96;100388.81;5032961;28;20512;-70
2022/09/19 02:32:49;;;;;;;0.30;0.28;;;;;;;12.24;97.45;100382.22;5028595;28;20029;-70
2022/09/19 02:35:20;;;;;;;0.30;0.20;;;;;;;12.24;97.39;100391.09;5035072;28;20037;-70
2022/09/19 02:37:58;;;;;;;0.20;0.20;;;;;;;12.22;97.74;100398.78;5051658;28;20283;-71
2022/09/19 02:41:07;;;;;;;0.20;0.20;;;;;;;12.20;98.20;100401.06;5036704;28;20321;-70
2022/09/19 02:43:56;;;;;;;0.13;0.13;;;;;;;12.20;98.13;100398.38;4971599;28;20034;-70
2022/09/19 02:46:34;;;;;;;0.30;0.30;;;;;;;12.20;97.60;100403.00;5029660;28;20029;-70
2022/09/19 02:49:04;;;;;;;0.35;0.20;;;;;;;12.19;98.02;100406.84;5025257;28;20449;-70
2022/09/19 02:51:36;;;;;;;0.77;0.23;;;;;;;12.14;97.96;100412.56;5029779;28;20028;-70
2022/09/19 02:54:11;;;;;;;0.20;0.20;;;;;;;12.14;97.83;100417.97;5034383;28;20064;-70
2022/09/19 02:56:38;;;;;;;;;;;;;;;12.09;97.57;100421.81;5019323;28;20099;-70
2022/09/19 02:59:10;;;;;;;0.20;0.20;;;;;;;12.10;97.77;100415.25;5037651;28;20333;-70
2022/09/19 03:01:46;;;;;;;0.52;0.35;;;;;;;12.07;97.79;100413.28;5052313;28;20044;-70
2022/09/19 03:04:19;;;;;;;0.63;0.30;;;;;;;11.99;98.38;100425.16;5034162;28;20112;-70
2022/09/19 03:07:13;;;;;;;0.28;0.28;;;;;;;11.98;98.75;100431.69;5028906;28;20112;-70
2022/09/19 03:10:09;;;;;;;0.38;0.30;;;;;;;11.92;98.60;100435.09;5028549;28;20572;-70
2022/09/19 03:13:00;;;;;;;0.95;0.47;;;;;;;11.92;98.71;100430.50;5043198;28;20554;-69
2022/09/19 03:15:50;;;;;;;0.20;0.20;;;;;;;11.93;98.70;100431.25;5028493;28;20090;-70
2022/09/19 03:18:23;;;;;;;0.47;0.47;;;;;;;11.93;98.16;100436.66;5030632;28;20029;-69
2022/09/19 03:20:53;;;;;;;0.30;0.30;;;;;;;11.92;98.60;100435.09;5033825;28;20029;-70
2022/09/19 03:23:25;;;;;;;0.13;0.13;;;;;;;11.98;97.88;100447.88;5020318;28;20080;-69
2022/09/19 03:25:51;;;;;;;1.27;0.32;;;;;;;11.96;98.51;100444.81;5037251;28;20045;-69
2022/09/19 03:28:19;;;;;;;0.20;0.20;;;;;;;11.94;98.02;100449.78;5040239;28;20037;-69
2022/09/19 03:30:47;;;;;;;0.30;0.30;;;;;;;11.96;98.36;100450.19;5030303;28;20025;-70
2022/09/19 03:33:15;;;;;;;1.20;0.30;;;;;;;11.90;97.93;100448.97;5034156;28;21080;-68
2022/09/19 03:35:43;;;;;;;1.63;0.52;;;;;;;11.95;97.61;100453.25;5029144;28;20037;-68
2022/09/19 03:38:10;;;;;;;0.43;0.30;;;;;;;12.03;97.80;100458.38;5048666;28;20104;-68
2022/09/19 03:40:37;;;;;;;0.55;0.40;;;;;;;12.04;97.52;100462.59;5038217;28;20158;-68
2022/09/19 03:43:06;;;;;;;0.47;0.22;;;;;;;12.01;97.16;100451.78;5020537;23;20045;-67
2022/09/19 03:45:32;;;;;;;0.85;0.30;;;;;;;11.95;97.66;100455.94;5038283;28;20112;-67
2022/09/19 03:47:57;;;;;;;0.40;0.30;;;;;;;11.93;97.89;100455.53;5045158;28;20168;-68
2022/09/19 03:50:25;;;;;;;0.40;0.40;;;;;;;12.02;97.50;100464.13;5049430;28;20036;-68
2022/09/19 03:53:01;;;;;;;0.85;0.43;;;;;;;11.95;97.72;100470.22;5032072;28;20072;-68
2022/09/19 03:55:27;;;;;;;0.93;0.40;;;;;;;11.97;97.84;100469.84;5032176;28;20501;-67
2022/09/19 03:57:53;;;;;;;0.50;0.43;;;;;;;11.94;97.62;100470.59;5029832;28;20116;-68
2022/09/19 04:00:20;;;;;;;0.40;0.30;;;;;;;11.93;97.40;100467.09;5030362;28;20068;-68
2022/09/19 04:02:45;;;;;;;0.30;0.30;;;;;;;11.93;97.49;100475.22;5016891;28;20029;-68
2022/09/19 04:05:13;;;;;;;0.20;0.20;;;;;;;11.92;97.49;100472.88;5025050;28;20106;-68
2022/09/19 04:07:38;;;;;;;0.20;0.20;;;;;;;11.91;97.50;100484.81;5015866;28;20075;-68
2022/09/19 04:10:06;;;;;;;0.40;0.40;;;;;;;11.94;97.12;100482.16;5037367;28;20387;-68
2022/09/19 04:12:33;;;;;;;0.47;0.47;;;;;;;11.87;97.63;100476.66;5041563;28;20041;-67
2022/09/19 04:15:00;;;;;;;0.10;0.10;;;;;;;11.88;97.45;100480.16;5011092;28;20032;-68
2022/09/19 04:17:27;;;;;;;0.20;0.20;;;;;;;11.90;97.10;100489.44;5017274;28;20435;-67
2022/09/19 04:19:57;;;;;;;0.30;0.30;;;;;;;11.82;97.36;100493.19;5036043;28;20092;-67
2022/09/19 04:22:29;;;;;;;0.22;0.22;;;;;;;11.83;97.80;100502.84;5021487;28;20037;-68
2022/09/19 04:25:14;;;;;;;0.40;0.40;;;;;;;11.78;97.74;100498.56;5031658;28;20183;-68
2022/09/19 04:28:04;;;;;;;1.15;0.40;;;;;;;11.76;97.85;100492.75;5030925;28;20502;-67
2022/09/19 04:30:36;;;;;;;7.50;0.60;;;;;;;11.85;98.18;100495.16;5045839;28;20029;-68
2022/09/19 04:33:05;;;;;;;0.32;0.28;;;;;;;11.88;98.36;100501.75;5047999;28;20053;-67
2022/09/19 04:35:35;;;;;;;0.20;0.20;;;;;;;11.92;98.39;100502.56;5030025;28;20038;-68
2022/09/19 04:38:06;;;;;;;0.30;0.30;;;;;;;11.95;97.64;100501.81;5009454;28;20041;-68
2022/09/19 04:40:45;;;;;;;0.98;0.40;;;;;;;12.01;97.48;100498.44;5041493;28;20051;-68
2022/09/19 04:43:14;;;;;;;0.55;0.35;;;;;;;12.04;97.41;100499.63;5013196;28;20493;-66
2022/09/19 04:45:48;;;;;;;0.40;0.40;;;;;;;12.05;97.58;100501.19;5029571;28;20025;-66
2022/09/19 04:48:22;;;;;;;0.70;0.35;;;;;;;12.04;98.20;100500.38;5030212;28;20041;-67
2022/09/19 04:50:51;;;;;;;0.30;0.30;;;;;;;12.10;97.83;100504.31;5016363;28;20057;-67
2022/09/19 04:53:19;;;;;;;0.43;0.40;;;;;;;12.11;98.27;100507.81;5030149;28;20029;-67
2022/09/19 04:55:48;;;;;;;0.70;0.50;;;;;;;12.12;98.41;100514.75;5011422;28;20056;-67
2022/09/19 04:58:15;;;;;;;0.60;0.40;;;;;;;12.21;98.27;100521.44;5036747;28;20045;-67
2022/09/19 05:00:45;;;;;;;3.97;2.35;;;;;;;12.31;97.49;100517.31;5026629;28;20095;-67
2022/09/19 05:03:15;;;;;;;4.90;1.30;;;;;;;12.30;97.90;100530.03;5028351;28;20552;-67
2022/09/19 05:05:50;;;;;;;3.33;0.70;;;;;;;12.36;97.48;100533.94;5028944;28;20395;-67
2022/09/19 05:08:25;;;;;;;0.50;0.50;;;;;;;12.40;97.56;100532.06;5041490;28;20029;-67
2022/09/19 05:10:54;;;;;;;1.85;0.60;;;;;;;12.37;97.64;100535.47;5034456;28;20033;-67
2022/09/19 05:13:23;;;;;;;0.80;0.70;;;;;;;12.34;97.97;100536.25;5039915;28;20022;-66
2022/09/19 05:15:51;;;;;;;2.95;1.70;;;;;;;12.40;97.97;100542.88;5009411;28;20057;-67
2022/09/19 05:18:20;;;;;;;0.90;0.73;;;;;;;12.44;98.54;100540.97;5028420;28;20056;-67
2022/09/19 05:20:48;;;;;;;0.40;0.40;;;;;;;12.51;97.36;100538.34;5012219;28;20033;-66
2022/09/19 05:23:15;;;;;;;1.95;0.40;;;;;;;12.53;97.44;100541.47;5028203;28;20052;-67
2022/09/19 05:25:41;;;;;;;0.95;0.45;;;;;;;12.56;97.64;100545.34;5007789;28;20519;-67
2022/09/19 05:28:08;;;;;;;5.15;0.50;;;;;;;12.58;97.46;100543.06;5022737;28;20128;-66
2022/09/19 05:30:38;;;;;;;1.30;0.55;;;;;;;12.61;97.58;100551.19;5029434;28;20451;-66
2022/09/19 05:33:06;;;;;;;2.08;0.95;;;;;;;12.64;97.28;100553.13;5024338;28;20040;-67
2022/09/19 05:35:39;;;;;;;1.58;0.88;;;;;;;12.64;97.63;100555.06;5009486;28;20397;-67
2022/09/19 05:38:32;;;;;;;0.70;0.60;;;;;;;12.68;97.71;100556.66;5025481;28;20127;-67
2022/09/19 05:41:23;;;;;;;0.55;0.43;;;;;;;12.72;97.65;100561.34;5007327;28;20033;-68
2022/09/19 05:44:01;;;;;;;5.03;1.08;;;;;;;12.74;98.50;100559.03;5027944;28;20037;-67
2022/09/19 05:46:27;;;;;;;3.97;0.80;;;;;;;12.82;97.28;100556.03;5018056;28;20029;-67
2022/09/19 05:48:54;;;;;;;2.05;0.85;;;;;;;12.82;98.02;100566.84;5048474;28;20404;-67
2022/09/19 05:51:19;;;;;;;1.85;0.80;;;;;;;12.85;98.18;100563.41;5012876;28;20035;-67
2022/09/19 05:53:55;;;;;;;1.23;0.73;;;;;;;12.88;97.98;100561.84;5027681;28;20120;-67
2022/09/19 05:56:39;;;;;;;1.05;0.50;;;;;;;12.90;98.15;100563.06;5024948;28;20048;-67
2022/09/19 05:59:06;;;;;;;5.57;0.80;;;;;;;12.96;97.35;100577.00;4998824;28;20036;-66
2022/09/19 06:01:33;;;;;;;4.18;0.65;;;;;;;12.94;98.23;100571.19;5034215;28;20033;-67
2022/09/19 06:03:59;;;;;;;1.73;0.98;;;;;;;12.99;98.17;100574.31;5015863;28;20089;-66
2022/09/19 06:06:27;;;;;;;2.08;0.50;;;;;;;13.02;98.38;100572.81;5026456;28;20018;-67
2022/09/19 06:08:56;;;;;;;2.15;0.75;;;;;;;13.17;97.86;100577.22;5026800;28;20121;-67
2022/09/19 06:11:22;;;;;;;1.60;0.85;;;;;;;13.26;97.68;100580.38;5046279;28;20025;-67
2022/09/19 06:16:34;;;;;;;2.58;0.70;;;;;;;13.28;98.61;100583.47;5025946;28;20031;-67
2022/09/19 06:19:28;;;;;;;1.60;0.95;;;;;;;13.36;98.61;100587.78;5008403;28;20494;-67
2022/09/19 06:22:05;;;;;;;3.90;0.70;;;;;;;13.46;98.37;100595.22;5027886;28;20036;-67
2022/09/19 06:24:30;;;;;;;2.33;1.00;;;;;;;13.51;98.25;100594.91;5044043;28;20047;-66
2022/09/19 06:26:57;;;;;;;6.22;1.60;;;;;;;13.51;98.93;100601.06;5027454;28;20025;-66
2022/09/19 06:29:24;;;;;;;1.48;1.17;;;;;;;13.52;98.53;100599.94;5034785;28;20116;-67
2022/09/19 06:32:25;;;;;;;3.40;0.85;;;;;;;13.62;99.00;100597.66;5013904;28;20386;-67
2022/09/19 06:35:11;;;;;;;2.78;1.23;;;;;;;13.71;99.17;100606.22;5029140;28;20049;-66
2022/09/19 06:37:37;;;;;;;1.90;1.33;;;;;;;13.81;98.94;100610.94;5013918;28;20080;-67
2022/09/19 06:40:05;;;;;;;2.70;0.70;;;;;;;13.88;99.05;100617.16;5030682;28;20060;-67
2022/09/19 06:42:48;;;;;;;0.68;0.60;;;;;;;13.96;99.02;100613.34;5031336;28;20045;-67
2022/09/19 06:45:24;;;;;;;4.15;0.75;;;;;;;14.02;98.42;100614.53;5024986;28;20037;-66
2022/09/19 06:48:12;;;;;;;3.88;0.50;;;;;;;14.06;98.64;100612.63;5028201;28;20060;-67
2022/09/19 06:50:47;;;;;;;2.63;0.43;;;;;;;14.18;98.31;100625.88;5029695;28;20041;-67
2022/09/19 06:53:16;;;;;;;3.30;0.40;;;;;;;14.26;98.47;100624.75;5034994;28;20029;-67
2022/09/19 06:55:42;;;;;;;1.25;0.63;;;;;;;14.37;98.00;100622.88;5021112;28;20486;-66
2022/09/19 06:58:12;;;;;;;0.80;0.45;;;;;;;14.36;98.00;100628.69;5022984;28;20426;-67
2022/09/19 07:00:40;;;;;;;3.15;0.50;;;;;;;14.39;97.72;100620.56;5028612;28;20120;-66
2022/09/19 07:03:15;;;;;;;0.45;0.40;;;;;;;14.50;97.30;100625.28;5033420;28;20041;-65
2022/09/19 07:05:47;;;;;;;5.00;0.50;;;;;;;14.48;97.78;100634.53;5021171;28;20040;-67
2022/09/19 07:08:20;;;;;;;1.45;0.77;;;;;;;14.52;97.89;100629.13;5030491;28;20402;-67
2022/09/19 07:10:47;;;;;;;0.88;0.55;;;;;;;14.54;98.04;100637.66;5009260;28;20033;-66
2022/09/19 07:13:14;;;;;;;0.90;0.40;;;;;;;14.59;97.96;100636.53;5044423;28;20478;-66
2022/09/19 07:15:41;;;;;;;0.77;0.40;;;;;;;14.67;97.96;100640.81;5024480;28;20430;-66
2022/09/19 07:18:08;;;;;;;2.45;0.65;;;;;;;14.75;97.96;100642.41;5043580;28;20125;-67
2022/09/19 07:20:36;;;;;;;0.47;0.47;;;;;;;14.81;97.96;100640.84;5028688;28;20389;-66
2022/09/19 07:23:19;;;;;;;2.45;0.80;;;;;;;15.05;98.23;100656.41;5032645;28;20043;-67
2022/09/19 07:26:00;;;;;;;5.35;1.55;;;;;;;15.34;98.12;100647.16;5039303;28;20044;-67
2022/09/19 07:28:26;;;;;;;2.67;0.80;;;;;;;15.57;98.48;100644.06;5013823;28;20088;-67
2022/09/19 07:30:53;;;;;;;0.55;0.40;;;;;;;15.79;98.16;100649.13;5027007;28;20501;-66
2022/09/19 07:33:20;;;;;;;2.38;0.57;;;;;;;15.96;97.83;100653.75;5054861;28;20057;-67
2022/09/19 07:35:46;;;;;;;1.85;0.60;;;;;;;16.14;97.80;100651.75;5033841;28;20033;-66
2022/09/19 07:38:15;;;;;;;1.63;0.40;;;;;;;16.37;98.07;100653.25;5029038;28;20026;-68
2022/09/19 07:41:00;;;;;;;2.95;0.60;;;;;;;16.43;96.87;100652.47;5037395;28;20037;-65
2022/09/19 07:43:30;;;;;;;1.30;0.70;;;;;;;16.61;96.42;100660.56;5028271;28;20398;-65
2022/09/19 07:46:15;;;;;;;19.42;3.60;;;;;;;16.70;95.50;100660.94;5045139;28;20136;-66
2022/09/19 07:49:06;;;;;;;3.53;0.80;;;;;;;16.98;95.22;100661.56;5034814;28;20057;-66
2022/09/19 07:51:54;;;;;;;2.42;0.50;;;;;;;17.24;94.54;100675.78;5036539;28;20106;-66
2022/09/19 07:54:20;;;;;;;2.80;0.30;;;;;;;17.58;93.67;100676.72;5030668;28;20029;-66
2022/09/19 07:56:47;;;;;;;0.50;0.32;;;;;;;17.74;92.27;100677.00;5033272;28;20088;-67
2022/09/19 07:59:13;;;;;;;3.60;0.50;;;;;;;17.95;91.72;100682.25;5028542;28;20460;-66
2022/09/19 08:01:48;;;;;;;2.50;0.40;;;;;;;18.15;90.07;100677.78;5029506;28;20139;-67
2022/09/19 08:04:27;;;;;;;0.43;0.20;;;;;;;18.25;88.61;100676.13;5035302;28;20021;-67
2022/09/19 08:06:56;;;;;;;15.97;2.90;;;;;;;18.44;88.24;100681.78;5031468;28;20535;-66
2022/09/19 08:09:22;;;;;;;2.78;0.80;;;;;;;18.64;87.19;100684.66;5027137;28;20331;-66
2022/09/19 08:11:53;;;;;;;2.53;0.50;;;;;;;18.89;86.49;100690.59;5026881;28;20049;-68
2022/09/19 08:14:19;;;;;;;1.77;0.45;;;;;;;19.06;85.10;100689.56;5043176;28;20437;-67
2022/09/19 08:16:45;;;;;;;0.95;0.45;;;;;;;19.09;84.14;100679.75;5031294;28;20025;-67
2022/09/19 08:19:12;;;;;;;3.83;0.52;;;;;;;19.28;84.49;100682.59;5022541;28;20029;-68
2022/09/19 08:21:39;;;;;;;1.15;0.38;;;;;;;19.55;82.27;100691.59;5042929;28;20448;-67
2022/09/19 08:24:05;;;;;;;1.63;0.30;;;;;;;19.62;81.58;100690.72;5030838;28;20088;-67
2022/09/19 08:26:31;;;;;;;2.90;0.40;;;;;;;19.91;80.49;100691.78;5031384;28;20025;-67
2022/09/19 08:28:56;;;;;;;0.30;0.20;;;;;;;19.90;79.74;100686.75;5040731;28;20513;-67
2022/09/19 08:31:26;;;;;;;0.95;0.30;;;;;;;20.19;79.11;100696.75;5022901;28;20063;-67
2022/09/19 08:33:51;;;;;;;0.82;0.47;;;;;;;20.32;77.05;100699.66;5044189;28;20022;-67
2022/09/19 08:36:17;;;;;;;1.90;0.40;;;;;;;20.24;76.55;100696.31;5014317;28;20025;-67
2022/09/19 08:38:46;;;;;;;0.10;0.10;;;;;;;20.29;76.42;100709.47;5039355;28;20029;-67
2022/09/19 08:41:53;;;;;;;9.55;2.08;;;;;;;20.50;75.90;100697.34;5013142;28;20057;-67
2022/09/19 08:44:36;;;;;;;7.45;1.50;;;;;;;20.59;75.35;100700.31;4997655;28;20618;-67
2022/09/19 08:47:10;;;;;;;0.52;0.20;;;;;;;20.65;74.56;100693.16;5031063;28;20034;-67
2022/09/19 08:49:42;;;;;;;1.55;0.30;;;;;;;20.88;72.83;100700.50;5025121;28;20033;-67
2022/09/19 08:52:33;;;;;;;4.90;1.20;;;;;;;20.79;71.42;100703.81;5049653;28;20033;-67
2022/09/19 08:55:01;;;;;;;0.68;0.10;;;;;;;20.80;71.49;100702.63;5030125;28;20438;-67
2022/09/19 08:57:38;;;;;;;0.25;0.17;;;;;;;20.84;70.81;100706.06;5030990;28;20037;-67
2022/09/19 09:00:16;;;;;;;4.25;0.80;;;;;;;21.22;69.42;100711.91;5028825;28;20060;-67
2022/09/19 09:02:54;;;;;;;4.28;0.63;;;;;;;21.25;69.24;100711.06;5034463;28;20033;-68
2022/09/19 09:05:44;;;;;;;1.85;0.20;;;;;;;20.95;69.44;100714.81;5029602;28;20034;-67
2022/09/19 09:08:36;;;;;;;2.08;0.30;;;;;;;20.94;70.26;100713.28;5017699;28;20026;-67
2022/09/19 09:11:26;;;;;;;3.50;0.80;;;;;;;20.77;72.03;100705.44;5039567;28;20108;-68
2022/09/19 09:14:19;;;;;;;1.38;1.10;;;;;;;20.63;72.35;100717.44;5034221;28;20060;-67
2022/09/19 09:17:22;;;;;;;3.20;0.90;;;;;;;20.74;71.35;100709.78;5031784;28;20025;-67
2022/09/19 09:20:17;;;;;;;3.63;0.32;;;;;;;20.57;72.63;100716.38;5023587;28;20517;-67
2022/09/19 09:23:07;;;;;;;0.28;0.20;;;;;;;20.64;70.62;100710.75;5020056;28;20094;-67
2022/09/19 09:25:45;;;;;;;1.17;0.30;;;;;;;20.57;70.35;100711.69;5028279;28;20064;-67
2022/09/19 09:28:27;;;;;;;2.33;0.43;;;;;;;20.56;70.86;100715.59;5037010;28;20079;-67
2022/09/19 09:31:15;;;;;;;1.60;0.30;;;;;;;20.77;69.17;100711.66;5030081;28;20091;-67
2022/09/19 09:33:53;;;;;;;1.38;0.10;;;;;;;21.16;68.13;100714.38;5023077;28;20044;-67
2022/09/19 09:36:24;;;;;;;0.10;0.10;;;;;;;21.46;68.10;100721.53;5030950;28;20028;-68
2022/09/19 09:39:02;;;;;;;1.73;0.20;;;;;;;21.64;63.89;100724.63;5030122;28;20037;-67
2022/09/19 09:41:50;;;;;;;2.10;0.22;;;;;;;21.64;63.29;100719.13;5016586;28;20053;-66
2022/09/19 09:44:31;;;;;;;2.53;0.22;;;;;;;21.58;65.24;100718.88;5050291;28;20037;-66
2022/09/19 09:47:18;;;;;;;1.90;0.50;;;;;;;21.49;65.36;100726.16;5029771;28;20120;-67
2022/09/19 09:49:44;;;;;;;1.05;0.20;;;;;;;21.44;63.05;100716.50;5029496;28;20410;-67
2022/09/19 09:52:56;;;;;;;0.03;0.03;;;;;;;21.29;64.81;100718.00;5028459;28;20040;-67
2022/09/19 10:05:42;;;;;;;1.52;0.30;;;;;;;21.44;64.17;100702.00;5037599;28;20135;-67
2022/09/19 10:08:14;;;;;;;0.25;0.10;;;;;;;21.50;63.96;100714.00;5019099;28;20041;-67
2022/09/19 10:10:42;;;;;;;1.88;0.28;;;;;;;21.49;64.45;100715.19;5028509;28;20044;-67
2022/09/19 10:13:27;;;;;;;0.63;0.30;;;;;;;21.46;64.50;100716.84;5029928;28;20030;-67
2022/09/19 10:16:02;;;;;;;1.25;0.25;;;;;;;21.43;63.83;100717.69;5039475;28;20124;-67
2022/09/19 10:18:48;;;;;;;1.80;0.17;;;;;;;21.30;64.62;100714.06;5026265;28;20117;-67
2022/09/19 10:21:18;;;;;;;1.95;0.10;;;;;;;21.19;65.17;100713.56;5051962;28;20420;-67
2022/09/19 10:23:48;;;;;;;2.08;0.80;;;;;;;21.17;64.16;100709.69;5019512;28;20049;-67
2022/09/19 10:26:27;;;;;;;0.17;0.10;;;;;;;21.02;63.29;100717.41;5015540;28;20128;-66
2022/09/19 10:28:59;;;;;;;2.05;0.20;;;;;;;21.00;62.95;100714.31;5046536;28;20033;-67
2022/09/19 10:31:47;;;;;;;3.33;1.20;;;;;;;20.95;64.71;100714.03;5030361;28;20034;-66
2022/09/19 10:34:32;;;;;;;2.67;1.23;;;;;;;20.88;65.61;100720.44;5023206;28;20113;-67
2022/09/19 10:37:02;;;;;;;0.65;0.40;;;;;;;21.04;65.50;100706.81;5038593;28;20044;-67
2022/09/19 10:39:29;;;;;;;1.27;0.20;;;;;;;21.37;62.22;100721.34;5019703;28;20120;-67
2022/09/19 10:41:55;;;;;;;0.10;0.10;;;;;;;21.41;61.41;100711.84;5029290;28;20041;-67
2022/09/19 10:44:23;;;;;;;0.25;0.10;;;;;;;21.47;61.77;100712.09;5013839;28;20444;-67
2022/09/19 10:47:03;;;;;;;0.65;0.28;;;;;;;21.69;62.34;100706.91;5043481;28;20033;-67
2022/09/19 10:49:49;;;;;;;2.28;0.25;;;;;;;21.78;62.22;100712.53;5019765;28;20491;-67
2022/09/19 10:52:33;;;;;;;0.30;0.10;;;;;;;21.76;60.69;100704.75;5027209;28;20026;-67
2022/09/19 10:55:09;;;;;;;0.50;0.10;;;;;;;21.85;60.43;100702.22;5035464;28;20029;-67
2022/09/19 10:57:37;;;;;;;0.30;0.10;;;;;;;21.97;59.28;100704.25;5028643;28;20256;-67
2022/09/19 11:00:04;;;;;;;2.10;0.13;;;;;;;22.12;59.39;100699.94;5015925;28;20044;-67
2022/09/19 11:02:33;;;;;;;0.00;0.00;;;;;;;22.38;58.38;100703.56;5037158;28;20026;-67
2022/09/19 11:05:03;;;;;;;0.65;0.10;;;;;;;22.36;57.29;100701.25;5043031;28;20411;-67
2022/09/19 11:07:49;;;;;;;0.00;0.00;;;;;;;22.23;55.72;100702.41;5029021;28;20025;-67
2022/09/19 11:10:28;;;;;;;3.40;0.10;;;;;;;22.09;56.56;100702.75;5032947;28;20060;-68
2022/09/19 11:13:13;;;;;;;0.30;0.10;;;;;;;22.06;57.24;100704.41;5028021;28;20375;-66
2022/09/19 11:16:07;;;;;;;2.38;0.20;;;;;;;21.88;57.43;100704.09;5024762;28;20116;-67
2022/09/19 11:18:46;;;;;;;0.00;0.00;;;;;;;21.82;57.86;100696.81;5023316;28;20045;-67
2022/09/19 11:21:31;;;;;;;0.73;0.15;;;;;;;21.86;57.11;100701.00;5033012;28;20076;-68
2022/09/19 11:24:04;;;;;;;0.00;0.00;;;;;;;22.08;56.43;100699.28;5011794;28;20044;-66
2022/09/19 11:27:07;;;;;;;0.00;0.00;;;;;;;22.14;54.46;100692.03;5040153;28;20021;-67
2022/09/19 11:29:35;;;;;;;0.63;0.20;;;;;;;22.16;55.25;100699.84;5023493;28;20095;-67
2022/09/19 11:32:34;;;;;;;0.00;0.00;;;;;;;22.15;54.95;100696.34;5026635;28;20040;-67
2022/09/19 11:35:16;;;;;;;1.38;0.08;;;;;;;22.20;53.60;100704.03;4987491;28;20053;-67
2022/09/19 11:38:04;;;;;;;0.28;0.20;;;;;;;22.22;54.31;100703.63;5005999;28;20325;-67
2022/09/19 11:40:51;;;;;;;0.52;0.10;;;;;;;22.20;53.98;100693.06;5023560;28;20037;-66
2022/09/19 11:43:42;;;;;;;0.20;0.10;;;;;;;22.21;54.74;100686.38;5024342;28;20045;-66
2022/09/19 11:46:30;;;;;;;0.65;0.20;;;;;;;22.35;53.75;100688.75;5021041;28;20057;-67
2022/09/19 11:49:00;;;;;;;0.10;0.10;;;;;;;22.50;53.14;100680.88;5027265;28;20503;-67
2022/09/19 11:51:42;;;;;;;0.70;0.20;;;;;;;22.63;52.55;100684.44;5021267;28;20698;-68
2022/09/19 11:54:22;;;;;;;0.00;0.00;;;;;;;22.56;53.44;100681.88;5042938;28;20025;-67
2022/09/19 11:57:11;;;;;;;0.63;0.10;;;;;;;22.51;53.18;100684.38;5026754;28;20033;-68
2022/09/19 12:00:05;;;;;;;0.40;0.05;;;;;;;22.33;52.32;100679.38;5027005;28;20053;-67
2022/09/19 12:03:04;;;;;;;0.68;0.10;;;;;;;22.03;53.19;100677.06;5027993;28;20133;-67
2022/09/19 12:06:07;;;;;;;0.10;0.10;;;;;;;21.93;54.89;100684.34;5024153;28;20034;-66
2022/09/19 12:09:04;;;;;;;0.90;0.20;;;;;;;22.01;56.20;100682.22;5037013;28;20041;-67
2022/09/19 12:11:44;;;;;;;0.15;0.10;;;;;;;22.07;54.98;100688.72;5033399;28;20060;-67
2022/09/19 12:14:23;;;;;;;5.43;0.20;;;;;;;22.14;54.71;100689.28;5033714;28;20025;-68
2022/09/19 12:17:01;;;;;;;0.35;0.20;;;;;;;22.15;53.68;100687.31;5016574;28;20025;-67
2022/09/19 12:19:51;;;;;;;1.17;0.55;;;;;;;22.05;54.58;100680.91;5044751;28;20025;-67